Terminal Aerodrome Forecast
Issued by NWS Binghamton, NY

Home | Current Version | Previous Version | Text Only | Print | Product List | Glossary On
Versions: 1 2 3 4 5 6 7 8 9 10 11 12 13 14 15 16 17
000
FTUS41 KBGM 182325
TAFAVP
TAF
KAVP 182325Z 1900/1924 24003KT P6SM BKN100
     FM190800 VRB03KT 3SM BR BKN010
     FM191400 27007KT P6SM SCT050=

USA.gov is the U.S. government's official web portal to all federal, state and local government web resources and services.